createdAt,value
2022-09-16T00:00:51.883Z,2.33
2022-09-16T00:04:17.754Z,1.67
2022-09-16T00:07:41.469Z,2.07
2022-09-16T00:11:05.403Z,2.10
2022-09-16T00:14:30.111Z,1.63
2022-09-16T00:17:53.544Z,1.80
2022-09-16T00:21:17.439Z,1.97
2022-09-16T00:24:41.191Z,1.50
2022-09-16T00:28:04.975Z,1.43
2022-09-16T00:31:29.964Z,1.80
2022-09-16T00:34:53.936Z,1.73
2022-09-16T00:38:17.897Z,2.00
2022-09-16T00:41:41.674Z,2.20
2022-09-16T00:45:14.291Z,2.10
2022-09-16T00:48:39.052Z,1.90
2022-09-16T00:52:07.667Z,1.97
2022-09-16T00:55:36.951Z,1.77
2022-09-16T00:59:09.786Z,2.13
2022-09-16T01:02:33.407Z,2.23
2022-09-16T01:05:58.739Z,2.30
2022-09-16T01:09:26.072Z,1.93
2022-09-16T01:12:54.875Z,2.00
2022-09-16T01:16:28.269Z,2.40
2022-09-16T01:20:33.848Z,2.03
2022-09-16T01:24:35.994Z,2.33
2022-09-16T01:28:48.214Z,1.90
2022-09-16T01:32:25.126Z,1.93
2022-09-16T01:36:01.372Z,1.87
2022-09-16T01:39:37.374Z,2.50
2022-09-16T01:43:13.619Z,1.90
2022-09-16T01:46:44.678Z,2.10
2022-09-16T01:50:20.983Z,1.90
2022-09-16T01:53:52.688Z,1.80
2022-09-16T01:57:22.453Z,2.07
2022-09-16T02:04:47.083Z,1.90
2022-09-16T02:08:16.978Z,2.10
2022-09-16T02:11:43.919Z,1.97
2022-09-16T02:15:13.545Z,2.20
2022-09-16T02:18:42.082Z,1.90
2022-09-16T02:22:12.469Z,1.80
2022-09-16T02:25:43.267Z,1.40
2022-09-16T02:29:14.798Z,1.60
2022-09-16T02:32:47.145Z,1.50
2022-09-16T02:36:12.518Z,1.53
2022-09-16T02:39:42.330Z,1.60
2022-09-16T02:43:07.148Z,1.40
2022-09-16T02:46:45.076Z,1.43
2022-09-16T02:50:16.477Z,1.50
2022-09-16T02:53:48.773Z,1.67
2022-09-16T02:57:13.113Z,1.67
2022-09-16T03:00:42.239Z,1.87
2022-09-16T03:04:06.326Z,1.50
2022-09-16T03:07:30.267Z,1.60
2022-09-16T03:10:55.662Z,1.53
2022-09-16T03:14:47.985Z,1.90
2022-09-16T03:18:48.216Z,1.30
2022-09-16T03:22:31.871Z,1.33
2022-09-16T03:26:04.513Z,1.50
2022-09-16T03:29:36.283Z,1.40
2022-09-16T03:33:04.028Z,1.60
2022-09-16T03:36:35.512Z,1.33
2022-09-16T03:40:03.888Z,1.17
2022-09-16T03:43:27.438Z,1.40
2022-09-16T03:46:51.397Z,1.87
2022-09-16T03:50:15.450Z,1.33
2022-09-16T03:53:40.278Z,1.57
2022-09-16T03:57:04.108Z,1.63
2022-09-16T04:00:28.913Z,1.30
2022-09-16T04:03:53.237Z,1.50
2022-09-16T04:07:17.059Z,1.40
2022-09-16T04:10:42.319Z,1.77
2022-09-16T04:14:06.908Z,1.23
2022-09-16T04:17:33.316Z,1.40
2022-09-16T04:20:58.716Z,1.60
2022-09-16T04:24:22.643Z,1.70
2022-09-16T04:27:47.453Z,1.40
2022-09-16T04:31:14.927Z,1.20
2022-09-16T04:34:38.745Z,1.20
2022-09-16T04:38:02.529Z,1.20
2022-09-16T04:41:28.140Z,1.17
2022-09-16T04:44:53.296Z,1.37
2022-09-16T04:48:18.006Z,1.60
2022-09-16T04:51:41.599Z,1.13
2022-09-16T04:55:05.880Z,1.23
2022-09-16T04:58:30.889Z,1.30
2022-09-16T05:01:55.856Z,1.40
2022-09-16T05:05:19.820Z,1.33
2022-09-16T05:08:44.204Z,1.50
2022-09-16T05:12:08.839Z,1.10
2022-09-16T05:15:32.293Z,1.40
2022-09-16T05:18:59.752Z,1.67
2022-09-16T05:22:23.594Z,1.50
2022-09-16T05:25:47.301Z,1.00
2022-09-16T05:29:17.119Z,1.30
2022-09-16T05:32:40.663Z,1.30
2022-09-16T05:36:08.286Z,1.50
2022-09-16T05:39:32.063Z,1.40
2022-09-16T05:42:56.510Z,1.43
2022-09-16T05:46:22.548Z,1.57
2022-09-16T05:49:46.484Z,1.50
2022-09-16T05:53:11.617Z,1.83
2022-09-16T05:56:35.949Z,1.60
2022-09-16T06:00:00.293Z,1.80
2022-09-16T06:03:24.123Z,1.60
2022-09-16T06:06:48.307Z,1.80
2022-09-16T06:10:13.123Z,1.57
2022-09-16T06:13:37.978Z,1.30
2022-09-16T06:17:01.864Z,1.30
2022-09-16T06:20:25.747Z,1.30
2022-09-16T06:23:49.714Z,1.80
2022-09-16T06:27:14.805Z,1.37
2022-09-16T06:30:39.095Z,1.40
2022-09-16T06:34:03.397Z,1.40
2022-09-16T06:37:27.391Z,1.30
2022-09-16T06:40:51.410Z,1.23
2022-09-16T06:44:16.212Z,1.60
2022-09-16T06:47:39.636Z,1.50
2022-09-16T06:51:05.526Z,1.47
2022-09-16T06:54:29.267Z,1.47
2022-09-16T06:57:53.057Z,1.40
2022-09-16T07:01:20.814Z,1.43
2022-09-16T07:04:44.597Z,1.37
2022-09-16T07:08:08.555Z,1.20
2022-09-16T07:11:32.444Z,1.23
2022-09-16T07:14:55.900Z,1.50
2022-09-16T07:18:21.325Z,1.50
2022-09-16T07:21:45.403Z,1.67
2022-09-16T07:25:09.514Z,1.50
2022-09-16T07:28:33.977Z,1.20
2022-09-16T07:31:57.850Z,1.10
2022-09-16T07:35:23.934Z,1.23
2022-09-16T07:38:48.172Z,1.43
2022-09-16T07:42:11.652Z,1.30
2022-09-16T07:45:35.187Z,1.50
2022-09-16T07:49:01.084Z,1.80
2022-09-16T07:52:29.348Z,1.47
2022-09-16T07:55:52.820Z,1.60
2022-09-16T07:59:19.876Z,1.73
2022-09-16T08:02:43.758Z,1.57
2022-09-16T08:06:10.486Z,2.13
2022-09-16T08:09:45.103Z,1.30
2022-09-16T08:13:14.772Z,1.57
2022-09-16T08:16:39.123Z,1.50
2022-09-16T08:20:04.254Z,1.50
2022-09-16T08:23:27.878Z,1.90
2022-09-16T08:26:52.932Z,1.80
2022-09-16T08:30:16.520Z,1.80
2022-09-16T08:33:41.591Z,1.53
2022-09-16T08:37:05.027Z,1.57
2022-09-16T08:40:34.181Z,1.57
2022-09-16T08:44:16.187Z,1.67
2022-09-16T08:47:50.526Z,2.00
2022-09-16T08:51:19.981Z,1.93
2022-09-16T08:54:50.762Z,2.40
2022-09-16T08:58:18.435Z,2.00
2022-09-16T09:01:51.697Z,2.03
2022-09-16T09:05:19.019Z,2.33
2022-09-16T09:08:56.139Z,1.70
2022-09-16T09:12:32.289Z,1.70
2022-09-16T09:16:10.563Z,1.97
2022-09-16T09:19:49.535Z,2.00
2022-09-16T09:23:30.064Z,1.77
2022-09-16T09:27:00.984Z,1.70
2022-09-16T09:30:26.225Z,1.67
2022-09-16T09:34:02.301Z,1.77
2022-09-16T09:37:46.175Z,2.00
2022-09-16T09:41:13.334Z,2.00
2022-09-16T09:44:48.153Z,1.70
2022-09-16T09:48:20.099Z,1.43
2022-09-16T09:51:52.172Z,1.80
2022-09-16T09:55:20.650Z,1.60
2022-09-16T09:58:58.833Z,1.47
2022-09-16T10:02:24.617Z,1.50
2022-09-16T10:05:49.149Z,1.50
2022-09-16T10:09:16.099Z,1.37
2022-09-16T10:12:41.639Z,1.83
2022-09-16T10:16:15.110Z,1.93
2022-09-16T10:19:51.345Z,1.53
2022-09-16T10:23:27.624Z,1.63
2022-09-16T10:26:53.804Z,2.40
2022-09-16T10:33:50.414Z,1.83
2022-09-16T10:37:20.267Z,2.20
2022-09-16T10:40:54.046Z,1.73
2022-09-16T10:44:23.777Z,1.80
2022-09-16T10:47:55.744Z,2.00
2022-09-16T10:51:25.277Z,1.90
2022-09-16T10:54:49.834Z,2.07
2022-09-16T10:58:19.757Z,2.20
2022-09-16T11:01:58.580Z,1.60
2022-09-16T11:05:34.685Z,1.70
2022-09-16T11:09:11.720Z,1.77
2022-09-16T11:13:13.756Z,1.80
2022-09-16T11:16:57.525Z,1.97
2022-09-16T11:20:51.402Z,1.50
2022-09-16T11:24:34.621Z,2.13
2022-09-16T11:28:09.112Z,1.40
2022-09-16T11:31:50.078Z,1.83
2022-09-16T11:35:42.596Z,2.23
2022-09-16T11:39:25.749Z,2.00
2022-09-16T11:43:01.513Z,1.83
2022-09-16T11:46:37.596Z,2.37
2022-09-16T11:50:16.136Z,2.50
2022-09-16T11:54:03.824Z,2.30
2022-09-16T11:57:34.926Z,1.70
2022-09-16T12:01:08.453Z,1.43
2022-09-16T12:04:38.820Z,1.60
2022-09-16T12:08:14.324Z,1.60
2022-09-16T12:11:44.292Z,1.70
2022-09-16T12:15:21.013Z,1.27
2022-09-16T12:18:52.286Z,1.30
2022-09-16T12:22:24.024Z,1.60
2022-09-16T12:26:05.821Z,1.40
2022-09-16T12:29:39.949Z,1.30
2022-09-16T12:33:13.426Z,2.00
2022-09-16T12:36:43.164Z,1.80
2022-09-16T12:40:19.258Z,1.50
2022-09-16T12:44:37.950Z,1.27
2022-09-16T12:48:48.035Z,1.37
2022-09-16T12:52:47.032Z,1.30
2022-09-16T12:56:20.435Z,1.60
2022-09-16T13:00:12.720Z,1.10
2022-09-16T13:03:43.331Z,1.60
2022-09-16T13:07:07.530Z,1.30
2022-09-16T13:10:54.606Z,1.53
2022-09-16T13:14:25.478Z,1.50
2022-09-16T13:17:52.780Z,1.40
2022-09-16T13:21:28.720Z,1.30
2022-09-16T13:25:02.328Z,1.50
2022-09-16T13:28:39.052Z,1.70
2022-09-16T13:32:04.231Z,1.30
2022-09-16T13:35:41.971Z,1.40
2022-09-16T13:39:13.088Z,1.53
2022-09-16T13:42:37.363Z,1.37
2022-09-16T13:46:11.117Z,1.20
2022-09-16T13:49:37.429Z,1.40
2022-09-16T13:53:11.389Z,1.50
2022-09-16T13:56:59.535Z,1.20
2022-09-16T14:00:26.339Z,1.30
2022-09-16T14:04:02.336Z,1.40
2022-09-16T14:07:42.726Z,1.33
2022-09-16T14:11:17.849Z,1.53
2022-09-16T14:14:47.451Z,1.60
2022-09-16T14:18:17.839Z,1.30
2022-09-16T14:21:41.596Z,1.73
2022-09-16T14:25:29.434Z,1.20
2022-09-16T14:29:04.814Z,1.40
2022-09-16T14:32:33.873Z,1.30
2022-09-16T14:35:59.881Z,1.50
2022-09-16T14:39:27.747Z,1.40
2022-09-16T14:43:00.076Z,1.57
2022-09-16T14:46:24.265Z,1.30
2022-09-16T14:49:53.515Z,1.40
2022-09-16T14:53:36.308Z,1.40
2022-09-16T14:57:04.920Z,1.30
2022-09-16T15:00:39.090Z,1.50
2022-09-16T15:04:35.486Z,1.50
2022-09-16T15:08:15.019Z,1.57
2022-09-16T15:11:51.490Z,1.70
2022-09-16T15:15:21.055Z,1.30
2022-09-16T15:18:55.537Z,1.40
2022-09-16T15:22:20.561Z,1.23
2022-09-16T15:25:54.896Z,1.20
2022-09-16T15:29:32.951Z,1.17
2022-09-16T15:32:57.303Z,1.33
2022-09-16T15:36:40.125Z,1.40
2022-09-16T15:40:20.683Z,1.70
2022-09-16T15:43:47.529Z,1.60
2022-09-16T15:47:21.009Z,1.40
2022-09-16T15:50:51.081Z,1.20
2022-09-16T15:54:23.623Z,1.30
2022-09-16T15:57:48.973Z,1.30
2022-09-16T16:01:19.217Z,1.30
2022-09-16T16:04:43.132Z,1.20
2022-09-16T16:08:09.986Z,1.40
2022-09-16T16:11:33.853Z,1.00
2022-09-16T16:14:58.788Z,1.20
2022-09-16T16:18:23.936Z,1.70
2022-09-16T16:21:47.651Z,1.30
2022-09-16T16:25:12.011Z,1.13
2022-09-16T16:28:36.093Z,1.53
2022-09-16T16:32:06.339Z,1.40
2022-09-16T16:35:32.202Z,1.50
2022-09-16T16:38:55.983Z,1.43
2022-09-16T16:42:19.994Z,1.30
2022-09-16T16:45:43.860Z,1.40
2022-09-16T16:49:07.668Z,1.20
2022-09-16T16:52:32.686Z,1.30
2022-09-16T16:56:03.079Z,1.00
2022-09-16T16:59:27.468Z,1.47
2022-09-16T17:02:50.963Z,1.67
2022-09-16T17:06:14.897Z,1.20
2022-09-16T17:09:39.988Z,1.30
2022-09-16T17:13:03.477Z,1.47
2022-09-16T17:16:28.553Z,1.60
2022-09-16T17:19:52.688Z,1.40
2022-09-16T17:23:16.660Z,1.20
2022-09-16T17:26:41.613Z,1.07
2022-09-16T17:30:05.978Z,1.03
2022-09-16T17:33:30.952Z,1.00
2022-09-16T17:36:54.995Z,1.10
2022-09-16T17:40:20.466Z,1.00
2022-09-16T17:43:45.921Z,0.90
2022-09-16T17:47:10.432Z,1.00
2022-09-16T17:50:34.225Z,1.00
2022-09-16T17:53:58.334Z,1.00
2022-09-16T17:57:22.632Z,1.10
2022-09-16T18:00:47.481Z,1.00
2022-09-16T18:04:11.456Z,1.00
2022-09-16T18:07:35.384Z,1.17
2022-09-16T18:10:59.298Z,1.00
2022-09-16T18:14:23.692Z,1.20
2022-09-16T18:17:48.977Z,0.90
2022-09-16T18:21:15.292Z,0.90
2022-09-16T18:24:39.088Z,1.03
2022-09-16T18:28:02.951Z,0.90
2022-09-16T18:31:26.567Z,0.83
2022-09-16T18:34:51.823Z,1.03
2022-09-16T18:38:17.188Z,0.90
2022-09-16T18:41:42.520Z,1.00
2022-09-16T18:45:07.472Z,1.30
2022-09-16T18:48:31.249Z,1.20
2022-09-16T18:51:56.354Z,1.03
2022-09-16T18:55:21.077Z,0.90
2022-09-16T18:58:58.327Z,1.03
2022-09-16T19:02:29.114Z,1.20
2022-09-16T19:05:57.399Z,1.10
2022-09-16T19:09:25.226Z,1.00
2022-09-16T19:12:49.035Z,0.90
2022-09-16T19:16:14.039Z,1.00
2022-09-16T19:19:37.814Z,1.00
2022-09-16T19:23:01.286Z,0.90
2022-09-16T19:26:27.681Z,1.40
2022-09-16T19:29:52.168Z,0.80
2022-09-16T19:33:16.034Z,1.00
2022-09-16T19:36:40.741Z,1.00
2022-09-16T19:40:04.879Z,1.00
2022-09-16T19:43:30.175Z,1.10
2022-09-16T19:46:54.264Z,1.03
2022-09-16T19:50:18.111Z,0.90
2022-09-16T19:53:43.354Z,1.10
2022-09-16T19:57:07.265Z,1.00
2022-09-16T20:00:46.849Z,1.00
2022-09-16T20:04:19.418Z,0.90
2022-09-16T20:07:43.271Z,0.90
2022-09-16T20:11:08.529Z,0.80
2022-09-16T20:14:33.997Z,0.87
2022-09-16T20:17:59.082Z,0.80
2022-09-16T20:21:24.844Z,1.10
2022-09-16T20:25:01.165Z,1.00
2022-09-16T20:28:35.321Z,1.00
2022-09-16T20:31:59.608Z,1.07
2022-09-16T20:35:24.821Z,1.20
2022-09-16T20:38:48.872Z,1.00
2022-09-16T20:42:12.866Z,1.07
2022-09-16T20:45:40.665Z,1.23
2022-09-16T20:49:09.369Z,0.90
2022-09-16T20:52:34.187Z,1.20
2022-09-16T20:56:02.758Z,1.33
2022-09-16T20:59:27.178Z,0.90
2022-09-16T21:02:53.221Z,0.90
2022-09-16T21:06:17.321Z,1.00
2022-09-16T21:09:42.719Z,1.10
2022-09-16T21:13:06.589Z,1.30
2022-09-16T21:16:32.283Z,1.00
2022-09-16T21:19:56.058Z,1.10
2022-09-16T21:23:19.813Z,1.00
2022-09-16T21:26:45.940Z,1.10
2022-09-16T21:30:11.406Z,1.00
2022-09-16T21:33:37.510Z,1.00
2022-09-16T21:37:01.206Z,1.10
2022-09-16T21:40:24.989Z,0.90
2022-09-16T21:43:52.175Z,0.70
2022-09-16T21:47:15.895Z,1.00
2022-09-16T21:50:39.651Z,0.97
2022-09-16T21:54:04.095Z,0.90
2022-09-16T21:57:27.827Z,0.80
2022-09-16T22:00:53.056Z,0.90
2022-09-16T22:04:18.929Z,0.93
2022-09-16T22:07:42.957Z,0.90
2022-09-16T22:11:08.984Z,0.87
2022-09-16T22:14:32.702Z,1.00
2022-09-16T22:17:57.845Z,0.90
2022-09-16T22:21:22.257Z,0.90
2022-09-16T22:24:45.953Z,0.90
2022-09-16T22:28:09.788Z,0.90
2022-09-16T22:31:37.648Z,0.90
2022-09-16T22:35:02.581Z,0.97
2022-09-16T22:38:26.363Z,0.80
2022-09-16T22:41:50.147Z,0.87
2022-09-16T22:45:13.534Z,0.80
2022-09-16T22:48:37.952Z,0.87
2022-09-16T22:52:03.444Z,0.90
2022-09-16T22:55:26.850Z,0.80
2022-09-16T22:58:54.333Z,0.90
2022-09-16T23:02:18.311Z,1.40
2022-09-16T23:05:42.091Z,1.13
2022-09-16T23:09:09.356Z,1.10
2022-09-16T23:12:33.129Z,1.10
2022-09-16T23:15:57.599Z,1.17
2022-09-16T23:19:21.807Z,0.90
2022-09-16T23:22:45.590Z,1.00
2022-09-16T23:26:13.289Z,0.90
2022-09-16T23:29:36.755Z,0.90
2022-09-16T23:33:00.532Z,1.00
2022-09-16T23:36:25.762Z,0.83
2022-09-16T23:39:50.160Z,0.83
2022-09-16T23:43:15.742Z,0.80
2022-09-16T23:46:39.531Z,0.90
2022-09-16T23:50:03.316Z,0.90
2022-09-16T23:53:27.415Z,0.80
2022-09-16T23:56:51.148Z,1.03
